Time;durP1;ratioP1;P1;durP2;ratioP2;P2;SDS_P1;SDS_P2;PMS_P1;PMS_P2;Temp;Humidity;BMP_temperature;BMP_pressure;BME280_temperature;BME280_humidity;BME280_pressure;Samples;Min_cycle;Max_cycle;Signal;HPM_P1;HPM_P2
2021/07/16 00:02:06;;;;;;;3.97;1.70;;;18.00;85.00;;;;;;5119221;28;20027;-71
2021/07/16 00:04:32;;;;;;;3.88;1.42;;;18.00;84.90;;;;;;5119087;28;20097;-72
2021/07/16 00:06:58;;;;;;;5.20;1.65;;;18.10;84.80;;;;;;5119120;28;20056;-72
2021/07/16 00:09:24;;;;;;;4.00;1.67;;;18.10;84.70;;;;;;5119055;28;20093;-72
2021/07/16 00:11:50;;;;;;;6.10;1.90;;;18.10;84.70;;;;;;5119022;28;20411;-72
2021/07/16 00:14:16;;;;;;;5.47;1.95;;;18.00;84.90;;;;;;5118934;28;20221;-71
2021/07/16 00:16:42;;;;;;;2.75;1.45;;;18.00;85.00;;;;;;5118949;28;20081;-72
2021/07/16 00:19:07;;;;;;;5.88;1.80;;;18.00;85.50;;;;;;5118892;28;20027;-72
2021/07/16 00:21:34;;;;;;;4.88;1.90;;;18.00;85.70;;;;;;5118836;28;20088;-72
2021/07/16 00:24:00;;;;;;;6.55;1.80;;;17.90;86.00;;;;;;5118465;28;20403;-72
2021/07/16 00:26:27;;;;;;;5.22;2.00;;;17.90;85.70;;;;;;5118739;28;20031;-72
2021/07/16 00:28:52;;;;;;;3.92;1.50;;;17.90;84.70;;;;;;5118693;28;20107;-71
2021/07/16 00:31:18;;;;;;;3.42;1.70;;;18.00;83.80;;;;;;5118664;28;20051;-71
2021/07/16 00:33:44;;;;;;;3.35;1.23;;;18.20;83.50;;;;;;5118480;28;20042;-72
2021/07/16 00:36:10;;;;;;;4.88;1.90;;;18.30;82.80;;;;;;5118512;28;20311;-72
2021/07/16 00:38:37;;;;;;;3.70;1.58;;;18.40;83.50;;;;;;5118033;28;20479;-72
2021/07/16 00:41:04;;;;;;;1.90;1.20;;;18.50;83.20;;;;;;5118160;28;20047;-71
2021/07/16 00:43:30;;;;;;;3.75;1.35;;;18.60;82.20;;;;;;5118409;28;20364;-71
2021/07/16 00:45:56;;;;;;;2.42;1.20;;;18.60;83.00;;;;;;5118342;28;20055;-72
2021/07/16 00:48:22;;;;;;;3.03;1.15;;;18.60;82.10;;;;;;5118013;28;20047;-71
2021/07/16 00:50:52;;;;;;;3.28;1.55;;;18.60;81.60;;;;;;5118281;28;20024;-71
2021/07/16 00:53:19;;;;;;;6.63;1.45;;;18.70;82.30;;;;;;5118508;28;20457;-71
2021/07/16 00:55:46;;;;;;;3.67;1.25;;;18.60;82.30;;;;;;5118107;28;20024;-70
2021/07/16 00:58:12;;;;;;;4.60;1.50;;;18.60;81.80;;;;;;5118143;28;20024;-70
2021/07/16 01:00:38;;;;;;;7.13;1.60;;;18.50;82.20;;;;;;5117768;28;20430;-70
2021/07/16 01:03:04;;;;;;;3.10;1.73;;;18.40;82.60;;;;;;5118044;28;20319;-70
2021/07/16 01:05:31;;;;;;;3.78;1.60;;;18.40;82.80;;;;;;5117957;28;20051;-70
2021/07/16 01:07:58;;;;;;;3.95;1.48;;;18.40;82.30;;;;;;5117939;28;20084;-70
2021/07/16 01:10:25;;;;;;;6.53;1.70;;;18.40;82.40;;;;;;5117568;28;20049;-70
2021/07/16 01:12:53;;;;;;;3.45;1.58;;;18.50;82.20;;;;;;5117452;28;20039;-70
2021/07/16 01:15:25;;;;;;;4.25;1.70;;;18.50;82.20;;;;;;5117693;28;20162;-70
2021/07/16 01:17:51;;;;;;;3.30;1.60;;;18.50;82.50;;;;;;5117367;28;20024;-70
2021/07/16 01:20:19;;;;;;;4.45;1.63;;;18.50;81.70;;;;;;5117443;28;20435;-71
2021/07/16 01:22:46;;;;;;;4.88;1.50;;;18.50;81.60;;;;;;5117748;28;20327;-70
2021/07/16 01:25:15;;;;;;;5.10;1.60;;;18.50;81.50;;;;;;5117340;28;20030;-70
2021/07/16 01:27:43;;;;;;;3.40;1.58;;;18.50;81.90;;;;;;5117652;28;20066;-70
2021/07/16 01:30:11;;;;;;;6.82;1.50;;;18.60;81.30;;;;;;5117248;28;20020;-71
2021/07/16 01:32:37;;;;;;;7.03;1.52;;;18.60;80.60;;;;;;5117585;28;20308;-71
2021/07/16 01:35:05;;;;;;;4.03;1.52;;;18.70;81.20;;;;;;5117683;28;20020;-70
2021/07/16 01:37:32;;;;;;;1.95;1.30;;;18.70;81.80;;;;;;5116943;28;20377;-70
2021/07/16 01:39:59;;;;;;;2.38;1.23;;;18.70;81.10;;;;;;5117472;28;20085;-70
2021/07/16 01:42:36;;;;;;;4.15;1.30;;;18.70;80.20;;;;;;5117464;28;20095;-71
2021/07/16 01:45:23;;;;;;;3.50;1.30;;;18.70;80.80;;;;;;5117457;28;20063;-70
2021/07/16 01:47:53;;;;;;;2.00;1.33;;;18.60;81.50;;;;;;5116417;28;20032;-70
2021/07/16 01:50:20;;;;;;;2.20;1.40;;;18.60;82.40;;;;;;5117026;28;20057;-70
2021/07/16 01:52:46;;;;;;;6.82;1.77;;;18.60;82.50;;;;;;5117030;28;20020;-70
2021/07/16 01:55:14;;;;;;;3.75;1.30;;;18.60;82.80;;;;;;5117184;28;20027;-70
2021/07/16 01:57:40;;;;;;;3.47;1.23;;;18.40;82.60;;;;;;5117028;28;20038;-70
2021/07/16 02:00:13;;;;;;;1.83;1.50;;;18.30;83.10;;;;;;5117301;28;20020;-70
2021/07/16 02:02:53;;;;;;;3.72;1.33;;;18.30;83.00;;;;;;5116954;28;20020;-70
2021/07/16 02:05:20;;;;;;;6.55;1.42;;;18.20;83.00;;;;;;5116910;28;20034;-70
2021/07/16 02:07:47;;;;;;;4.78;1.33;;;18.20;83.30;;;;;;5116967;28;20026;-70
2021/07/16 02:10:13;;;;;;;4.22;1.50;;;18.20;83.30;;;;;;5117228;28;20051;-70
2021/07/16 02:12:39;;;;;;;5.50;1.55;;;18.30;83.70;;;;;;5117119;28;20051;-70
2021/07/16 02:15:19;;;;;;;4.15;1.48;;;18.30;84.10;;;;;;5117127;28;20035;-70
2021/07/16 02:17:46;;;;;;;5.07;1.75;;;18.30;83.70;;;;;;5116882;28;20030;-70
2021/07/16 02:20:18;;;;;;;2.63;1.42;;;18.20;83.70;;;;;;5117114;28;20027;-69
2021/07/16 02:22:44;;;;;;;3.42;1.80;;;18.20;83.70;;;;;;5116777;28;20024;-70
2021/07/16 02:25:10;;;;;;;4.57;1.70;;;18.10;84.10;;;;;;5117015;28;20107;-70
2021/07/16 02:27:36;;;;;;;3.83;1.73;;;17.90;84.80;;;;;;5117072;28;20050;-70
2021/07/16 02:30:05;;;;;;;5.93;1.60;;;17.80;85.50;;;;;;5119230;28;20024;-70
2021/07/16 02:32:31;;;;;;;2.90;1.67;;;17.70;85.80;;;;;;5120660;28;20031;-70
2021/07/16 02:34:57;;;;;;;5.57;1.98;;;17.60;85.90;;;;;;5120889;28;20040;-70
2021/07/16 02:37:22;;;;;;;8.30;1.80;;;17.60;86.80;;;;;;5120831;28;20016;-70
2021/07/16 02:39:48;;;;;;;6.68;1.83;;;17.70;86.60;;;;;;5120370;28;20437;-70
2021/07/16 02:42:13;;;;;;;5.97;1.60;;;17.70;85.90;;;;;;5120794;28;20027;-70
2021/07/16 02:44:39;;;;;;;8.13;1.63;;;17.80;86.10;;;;;;5120892;28;20371;-70
2021/07/16 02:47:05;;;;;;;5.45;1.60;;;17.80;85.90;;;;;;5120643;28;20030;-70
2021/07/16 02:49:31;;;;;;;7.38;1.90;;;17.80;85.90;;;;;;5120650;28;20027;-70
2021/07/16 02:51:56;;;;;;;7.22;1.83;;;17.80;85.90;;;;;;5120275;28;20027;-70
2021/07/16 02:54:22;;;;;;;10.18;1.80;;;17.90;86.30;;;;;;5120468;28;20081;-70
2021/07/16 02:56:48;;;;;;;2.95;1.80;;;17.90;86.50;;;;;;5120182;28;20026;-69
2021/07/16 02:59:13;;;;;;;3.20;1.90;;;17.90;85.50;;;;;;5120466;28;20026;-70
2021/07/16 03:01:58;;;;;;;7.18;1.80;;;17.90;85.10;;;;;;5120396;28;20073;-69
2021/07/16 03:04:27;;;;;;;3.53;1.40;;;17.90;84.60;;;;;;5120430;28;20312;-70
2021/07/16 03:06:53;;;;;;;3.00;1.85;;;18.00;84.70;;;;;;5120311;28;20110;-70
2021/07/16 03:09:19;;;;;;;5.13;1.63;;;18.00;84.70;;;;;;5120262;28;20023;-70
2021/07/16 03:11:45;;;;;;;4.00;1.98;;;18.10;84.90;;;;;;5120240;28;20031;-70
2021/07/16 03:14:11;;;;;;;4.50;1.60;;;18.10;84.20;;;;;;5120139;28;20481;-70
2021/07/16 03:16:37;;;;;;;6.07;2.20;;;18.20;83.20;;;;;;5120101;28;20077;-71
2021/07/16 03:19:04;;;;;;;3.85;1.80;;;18.20;83.10;;;;;;5120105;28;20012;-70
2021/07/16 03:21:30;;;;;;;3.00;1.55;;;18.30;83.10;;;;;;5120012;28;20062;-70
2021/07/16 03:23:55;;;;;;;3.97;1.40;;;18.30;83.10;;;;;;5119942;28;20020;-70
2021/07/16 03:26:21;;;;;;;2.63;1.30;;;18.30;83.20;;;;;;5119922;28;20047;-70
2021/07/16 03:28:47;;;;;;;5.97;1.60;;;18.30;83.30;;;;;;5119861;28;20031;-70
2021/07/16 03:31:12;;;;;;;3.10;1.55;;;18.20;82.70;;;;;;5119852;28;20032;-70
2021/07/16 03:33:38;;;;;;;5.03;1.30;;;18.20;82.70;;;;;;5119792;28;20468;-70
2021/07/16 03:36:06;;;;;;;3.03;1.13;;;18.20;82.20;;;;;;5119687;28;20316;-70
2021/07/16 03:38:31;;;;;;;2.88;1.10;;;18.20;82.00;;;;;;5119201;28;20444;-70
2021/07/16 03:40:59;;;;;;;3.60;1.20;;;18.30;81.50;;;;;;5119264;28;20026;-70
2021/07/16 03:43:25;;;;;;;3.88;1.10;;;18.30;81.00;;;;;;5119407;28;20031;-70
2021/07/16 03:45:51;;;;;;;5.20;1.10;;;18.40;80.60;;;;;;5119531;28;20046;-70
2021/07/16 03:48:17;;;;;;;1.90;1.15;;;18.50;80.60;;;;;;5119544;28;20315;-70
2021/07/16 03:50:43;;;;;;;3.30;1.13;;;18.50;80.50;;;;;;5119447;28;20027;-70
2021/07/16 03:53:09;;;;;;;4.85;1.70;;;18.50;80.40;;;;;;5119063;28;20106;-70
2021/07/16 03:55:34;;;;;;;1.58;1.02;;;18.50;80.50;;;;;;5119244;28;20031;-70
2021/07/16 03:58:01;;;;;;;4.93;1.38;;;18.50;80.90;;;;;;5119012;28;20110;-72
2021/07/16 04:00:29;;;;;;;1.85;1.20;;;18.50;81.30;;;;;;5119282;28;20027;-70
2021/07/16 04:02:56;;;;;;;5.18;1.50;;;18.50;81.70;;;;;;5119258;28;20020;-70
2021/07/16 04:05:23;;;;;;;5.15;1.35;;;18.50;81.80;;;;;;5118945;28;20031;-71
2021/07/16 04:07:50;;;;;;;2.47;1.17;;;18.40;81.40;;;;;;5118816;28;20419;-70
2021/07/16 04:10:20;;;;;;;4.32;1.23;;;18.40;81.20;;;;;;5119100;28;20108;-70
2021/07/16 04:12:53;;;;;;;4.15;1.13;;;18.50;81.20;;;;;;5118729;28;20024;-70
2021/07/16 04:15:20;;;;;;;4.00;1.67;;;18.50;80.70;;;;;;5118551;28;20039;-70
2021/07/16 04:17:47;;;;;;;3.00;1.25;;;18.50;81.70;;;;;;5118982;28;20019;-70
2021/07/16 04:20:13;;;;;;;3.75;1.20;;;18.60;82.30;;;;;;5118563;28;20399;-70
2021/07/16 04:22:39;;;;;;;4.28;1.40;;;18.60;82.30;;;;;;5118508;28;20026;-70
2021/07/16 04:25:06;;;;;;;5.22;1.40;;;18.60;83.10;;;;;;5118861;28;20085;-70
2021/07/16 04:27:32;;;;;;;3.63;1.77;;;18.40;84.20;;;;;;5118321;28;20030;-70
2021/07/16 04:29:58;;;;;;;4.38;1.90;;;18.40;84.30;;;;;;5118690;28;20028;-70
2021/07/16 04:32:24;;;;;;;5.63;1.50;;;18.40;84.50;;;;;;5118669;28;20043;-70
2021/07/16 04:34:50;;;;;;;6.30;1.65;;;18.30;83.50;;;;;;5118225;28;20078;-70
2021/07/16 04:37:16;;;;;;;3.28;1.52;;;18.30;82.60;;;;;;5118200;28;20087;-70
2021/07/16 04:39:42;;;;;;;3.85;1.58;;;18.40;82.50;;;;;;5118067;28;20074;-70
2021/07/16 04:42:07;;;;;;;2.97;1.70;;;18.40;82.80;;;;;;5118467;28;20046;-71
2021/07/16 04:44:34;;;;;;;2.20;1.17;;;18.50;82.20;;;;;;5118490;28;20074;-70
2021/07/16 04:47:00;;;;;;;2.25;1.10;;;18.60;81.60;;;;;;5118029;28;20493;-70
2021/07/16 04:49:26;;;;;;;5.15;1.50;;;18.70;81.60;;;;;;5118298;28;20031;-70
2021/07/16 04:51:52;;;;;;;3.58;1.23;;;18.80;81.60;;;;;;5117526;28;20078;-70
2021/07/16 04:54:18;;;;;;;1.83;1.15;;;18.90;81.00;;;;;;5117812;28;20407;-70
2021/07/16 04:56:44;;;;;;;2.65;1.00;;;18.90;80.80;;;;;;5117870;28;20047;-70
2021/07/16 04:59:10;;;;;;;2.63;1.10;;;18.90;79.90;;;;;;5117857;28;20493;-70
2021/07/16 05:01:35;;;;;;;3.78;1.20;;;18.90;79.70;;;;;;5117808;28;20028;-70
2021/07/16 05:04:01;;;;;;;2.67;1.05;;;18.90;79.50;;;;;;5118013;28;20108;-70
2021/07/16 05:06:27;;;;;;;3.47;0.95;;;18.90;79.50;;;;;;5118027;28;20020;-70
2021/07/16 05:08:53;;;;;;;3.95;1.00;;;18.90;79.20;;;;;;5117965;28;20023;-70
2021/07/16 05:11:20;;;;;;;3.13;1.20;;;19.00;78.50;;;;;;5117921;28;20073;-70
2021/07/16 05:13:46;;;;;;;2.85;0.98;;;19.00;79.40;;;;;;5117724;28;20394;-70
2021/07/16 05:16:13;;;;;;;3.28;1.40;;;19.10;80.00;;;;;;5117496;28;20102;-70
2021/07/16 05:18:40;;;;;;;3.05;1.10;;;19.10;79.50;;;;;;5117813;28;20099;-71
2021/07/16 05:21:07;;;;;;;3.88;1.55;;;19.20;80.50;;;;;;5117760;28;20019;-70
2021/07/16 05:23:33;;;;;;;2.80;1.20;;;19.20;81.20;;;;;;5117627;28;20384;-70
2021/07/16 05:25:59;;;;;;;2.20;0.90;;;19.30;80.10;;;;;;5117687;28;20027;-70
2021/07/16 05:28:26;;;;;;;3.22;1.50;;;19.30;79.50;;;;;;5117343;28;20081;-70
2021/07/16 05:30:52;;;;;;;3.30;1.50;;;19.40;79.60;;;;;;5117668;28;20367;-70
2021/07/16 05:33:18;;;;;;;3.67;1.13;;;19.50;80.30;;;;;;5117609;28;20032;-70
2021/07/16 05:35:44;;;;;;;1.92;1.15;;;19.60;81.20;;;;;;5117472;28;20050;-70
2021/07/16 05:38:10;;;;;;;2.75;1.33;;;19.80;81.10;;;;;;5117292;28;20051;-70
2021/07/16 05:40:37;;;;;;;3.50;1.23;;;19.90;80.20;;;;;;5117475;28;20016;-70
2021/07/16 05:43:12;;;;;;;3.47;1.13;;;20.00;81.40;;;;;;5117434;28;20031;-70
2021/07/16 05:45:39;;;;;;;1.75;1.08;;;20.00;79.50;;;;;;5117405;28;20028;-70
2021/07/16 05:48:09;;;;;;;4.70;1.10;;;20.00;77.30;;;;;;5117440;28;20084;-70
2021/07/16 05:50:34;;;;;;;1.77;0.82;;;19.90;78.00;;;;;;5117372;28;20417;-70
2021/07/16 05:53:00;;;;;;;2.70;1.20;;;19.80;77.10;;;;;;5117121;28;20051;-70
2021/07/16 05:55:26;;;;;;;1.67;0.85;;;19.80;77.30;;;;;;5116968;28;20027;-70
2021/07/16 05:57:51;;;;;;;5.72;1.00;;;19.70;78.50;;;;;;5117378;28;20035;-70
2021/07/16 06:00:18;;;;;;;1.77;0.80;;;19.70;77.70;;;;;;5117036;28;20028;-70
2021/07/16 06:02:44;;;;;;;3.05;1.00;;;19.70;77.70;;;;;;5117643;28;20028;-70
2021/07/16 06:05:10;;;;;;;1.65;0.82;;;19.80;76.30;;;;;;5121518;28;20030;-70
2021/07/16 06:07:35;;;;;;;1.88;0.90;;;19.90;77.40;;;;;;5121489;28;20032;-70
2021/07/16 06:10:02;;;;;;;2.45;0.90;;;20.00;78.20;;;;;;5121410;28;20461;-70
2021/07/16 06:12:27;;;;;;;1.60;0.90;;;20.20;79.10;;;;;;5121347;28;20103;-70
2021/07/16 06:14:56;;;;;;;3.00;1.10;;;20.30;78.70;;;;;;5121478;28;20417;-70
2021/07/16 06:17:27;;;;;;;1.65;0.98;;;20.40;80.50;;;;;;5121293;28;20029;-70
2021/07/16 06:19:53;;;;;;;2.22;0.90;;;20.50;80.70;;;;;;5121280;28;20315;-70
2021/07/16 06:22:19;;;;;;;1.83;0.82;;;20.60;80.00;;;;;;5120915;28;20081;-70
2021/07/16 06:24:45;;;;;;;1.38;0.88;;;20.80;81.50;;;;;;5121090;28;20027;-70
2021/07/16 06:27:11;;;;;;;2.22;1.10;;;21.00;82.10;;;;;;5121023;28;20055;-70
2021/07/16 06:29:37;;;;;;;2.75;1.05;;;21.30;79.80;;;;;;5120716;28;20412;-70
2021/07/16 06:32:03;;;;;;;2.50;1.30;;;21.50;78.40;;;;;;5120738;28;20028;-70
2021/07/16 06:34:29;;;;;;;3.13;1.20;;;22.10;75.60;;;;;;5120532;28;20069;-70
2021/07/16 06:36:55;;;;;;;2.00;1.20;;;23.10;69.90;;;;;;5120928;28;20094;-70
2021/07/16 06:39:21;;;;;;;5.32;1.33;;;24.00;68.40;;;;;;5120497;28;20094;-70
2021/07/16 06:41:47;;;;;;;4.28;1.48;;;24.20;67.40;;;;;;5120808;28;20451;-70
2021/07/16 06:44:14;;;;;;;3.10;1.10;;;24.50;68.20;;;;;;5120831;28;20093;-70
2021/07/16 06:46:40;;;;;;;3.78;1.40;;;24.80;69.30;;;;;;5120382;28;20039;-70
2021/07/16 06:49:06;;;;;;;3.85;1.40;;;24.90;67.00;;;;;;5120351;28;20035;-70
2021/07/16 06:51:33;;;;;;;4.25;1.25;;;25.40;65.90;;;;;;5120629;28;20027;-70
2021/07/16 06:54:02;;;;;;;3.30;1.00;;;25.80;63.90;;;;;;5120510;28;20375;-70
2021/07/16 06:56:29;;;;;;;3.03;1.30;;;26.30;63.00;;;;;;5120209;28;20030;-71
2021/07/16 06:58:54;;;;;;;1.83;1.20;;;26.90;62.00;;;;;;5120202;28;20055;-70
2021/07/16 07:01:20;;;;;;;2.85;1.40;;;26.90;59.80;;;;;;5120469;28;20043;-70
2021/07/16 07:03:46;;;;;;;2.70;1.15;;;27.30;60.00;;;;;;5120074;28;20020;-70
2021/07/16 07:06:12;;;;;;;3.60;1.15;;;28.00;58.50;;;;;;5120328;28;20030;-70
2021/07/16 07:08:38;;;;;;;1.75;1.00;;;28.60;56.10;;;;;;5119978;28;20305;-71
2021/07/16 07:11:05;;;;;;;4.28;1.23;;;29.00;56.10;;;;;;5120003;28;20027;-71
2021/07/16 07:13:31;;;;;;;2.72;1.30;;;29.00;54.80;;;;;;5120064;28;20032;-71
2021/07/16 07:15:56;;;;;;;3.33;1.10;;;29.10;55.40;;;;;;5118941;28;20032;-71
2021/07/16 07:18:22;;;;;;;2.88;1.00;;;29.20;55.40;;;;;;5120138;28;20023;-71
2021/07/16 07:20:48;;;;;;;5.57;1.52;;;29.20;56.30;;;;;;5120041;28;20054;-71
2021/07/16 07:23:14;;;;;;;2.88;0.95;;;29.20;54.60;;;;;;5120054;28;20016;-71
2021/07/16 07:25:39;;;;;;;4.82;0.82;;;29.50;53.00;;;;;;5119939;28;20320;-71
2021/07/16 07:28:06;;;;;;;4.00;1.10;;;29.90;54.60;;;;;;5119969;28;20473;-71
2021/07/16 07:30:31;;;;;;;2.95;1.10;;;29.90;55.30;;;;;;5119885;28;20062;-71
2021/07/16 07:32:58;;;;;;;3.42;0.77;;;29.50;57.80;;;;;;5119825;28;20343;-70
2021/07/16 07:35:24;;;;;;;4.35;1.10;;;29.10;58.50;;;;;;5119714;28;20024;-70
2021/07/16 07:37:50;;;;;;;2.53;0.98;;;28.50;59.20;;;;;;5119252;28;20305;-70
2021/07/16 07:40:17;;;;;;;2.85;1.30;;;27.90;61.60;;;;;;5119438;28;20399;-70
2021/07/16 07:42:46;;;;;;;3.45;1.25;;;27.30;62.80;;;;;;5119542;28;20023;-70
2021/07/16 07:45:13;;;;;;;7.05;1.40;;;26.90;61.00;;;;;;5119598;28;20331;-70
2021/07/16 07:47:38;;;;;;;2.53;1.20;;;26.60;60.40;;;;;;5119286;28;20046;-70
2021/07/16 07:50:08;;;;;;;2.55;1.08;;;26.20;63.50;;;;;;5119243;28;20035;-70
2021/07/16 07:52:34;;;;;;;3.35;1.45;;;25.90;64.00;;;;;;5119468;28;20324;-70
2021/07/16 07:55:00;;;;;;;2.42;0.60;;;25.40;63.60;;;;;;5119371;28;20035;-70
2021/07/16 07:57:26;;;;;;;1.30;0.70;;;25.20;63.10;;;;;;5119332;28;20047;-70
2021/07/16 07:59:51;;;;;;;3.83;0.85;;;25.00;64.40;;;;;;5119011;28;20030;-70
2021/07/16 08:02:17;;;;;;;1.80;0.80;;;25.10;66.60;;;;;;5118997;28;20106;-70
2021/07/16 08:04:43;;;;;;;2.42;0.88;;;25.30;67.40;;;;;;5119278;28;20032;-70
2021/07/16 08:07:08;;;;;;;2.65;1.17;;;25.50;68.40;;;;;;5119139;28;20104;-70
2021/07/16 08:09:34;;;;;;;2.67;1.17;;;25.60;67.60;;;;;;5119172;28;20044;-70
2021/07/16 08:12:02;;;;;;;8.20;2.00;;;25.90;67.10;;;;;;5118803;28;20368;-70
2021/07/16 08:14:28;;;;;;;2.97;1.05;;;26.10;67.70;;;;;;5119230;28;20032;-70
2021/07/16 08:16:54;;;;;;;2.33;1.20;;;26.20;65.80;;;;;;5100655;28;20024;-70
2021/07/16 08:19:21;;;;;;;3.65;1.23;;;26.00;66.30;;;;;;5118643;28;20051;-70
2021/07/16 08:21:48;;;;;;;3.28;1.50;;;25.70;65.30;;;;;;5118878;28;20020;-70
2021/07/16 08:24:15;;;;;;;3.60;1.45;;;25.50;66.60;;;;;;5118488;28;20407;-70
2021/07/16 08:26:42;;;;;;;3.33;1.20;;;25.40;69.50;;;;;;5117639;28;20020;-70
2021/07/16 08:29:08;;;;;;;3.33;1.17;;;25.60;69.10;;;;;;5118421;28;20019;-70
2021/07/16 08:31:35;;;;;;;6.32;1.25;;;25.90;68.00;;;;;;5118373;28;20376;-70
2021/07/16 08:34:01;;;;;;;3.80;1.23;;;26.40;67.60;;;;;;5118219;28;20054;-70
2021/07/16 08:36:26;;;;;;;3.35;0.98;;;26.60;65.20;;;;;;5118564;28;20016;-70
2021/07/16 08:38:52;;;;;;;2.03;0.93;;;26.40;66.30;;;;;;5118024;28;20040;-70
2021/07/16 08:41:18;;;;;;;3.53;1.10;;;26.50;68.50;;;;;;5118514;28;20124;-70
2021/07/16 08:43:44;;;;;;;4.15;1.50;;;26.70;66.50;;;;;;5118500;28;20366;-70
2021/07/16 08:46:11;;;;;;;2.47;1.00;;;26.80;64.50;;;;;;5118369;28;20035;-70
2021/07/16 08:48:40;;;;;;;4.50;1.17;;;26.90;63.90;;;;;;5118021;28;20096;-70
2021/07/16 08:51:05;;;;;;;5.72;1.45;;;27.20;65.00;;;;;;5117990;28;20103;-70
2021/07/16 08:53:33;;;;;;;4.78;1.20;;;27.30;64.70;;;;;;5118288;28;20055;-70
2021/07/16 08:55:59;;;;;;;2.97;1.25;;;27.10;62.50;;;;;;5118149;28;20032;-70
2021/07/16 08:58:24;;;;;;;3.03;1.40;;;26.80;62.50;;;;;;5118200;28;20073;-70
2021/07/16 09:00:51;;;;;;;3.03;1.33;;;26.70;63.60;;;;;;5118131;28;20154;-70
2021/07/16 09:03:17;;;;;;;2.92;1.17;;;26.70;64.00;;;;;;5118074;28;20043;-70
2021/07/16 09:05:44;;;;;;;3.22;1.42;;;26.80;63.90;;;;;;5117729;28;20320;-70
2021/07/16 09:08:21;;;;;;;3.78;1.20;;;26.90;64.80;;;;;;5117704;28;20031;-70
2021/07/16 09:10:56;;;;;;;1.80;1.00;;;26.80;65.60;;;;;;5117665;28;20034;-70
2021/07/16 09:13:23;;;;;;;7.00;1.10;;;26.70;67.10;;;;;;5117934;28;20119;-70
2021/07/16 09:15:54;;;;;;;3.35;1.27;;;26.40;66.20;;;;;;5117415;28;20030;-70
2021/07/16 09:18:21;;;;;;;1.63;0.90;;;26.30;66.70;;;;;;5117546;28;20100;-70
2021/07/16 09:21:03;;;;;;;2.83;1.40;;;26.30;65.70;;;;;;5117797;28;20023;-70
2021/07/16 09:23:47;;;;;;;2.85;1.05;;;26.50;68.10;;;;;;5117504;28;20028;-70
2021/07/16 09:26:29;;;;;;;7.05;1.67;;;26.50;66.10;;;;;;5117708;28;20019;-70
2021/07/16 09:28:57;;;;;;;2.53;1.08;;;26.40;64.50;;;;;;5117393;28;20110;-70
2021/07/16 09:31:25;;;;;;;3.85;1.05;;;26.70;64.30;;;;;;5117644;28;20024;-70
2021/07/16 09:33:56;;;;;;;3.08;0.90;;;27.20;63.60;;;;;;5117606;28;20051;-70
2021/07/16 09:36:26;;;;;;;1.60;0.80;;;27.30;63.80;;;;;;5117320;28;20118;-70
2021/07/16 09:38:56;;;;;;;3.10;1.05;;;27.20;64.30;;;;;;5116752;28;20047;-70
2021/07/16 09:41:22;;;;;;;3.90;1.58;;;27.10;66.00;;;;;;5117570;28;20077;-70
2021/07/16 09:43:57;;;;;;;2.50;1.15;;;27.00;68.80;;;;;;5117404;28;20024;-70
2021/07/16 09:46:22;;;;;;;2.28;0.80;;;27.00;66.30;;;;;;5117470;28;20296;-70
2021/07/16 09:48:48;;;;;;;4.40;1.20;;;27.00;67.40;;;;;;5117453;28;20079;-70
2021/07/16 09:51:19;;;;;;;3.42;1.13;;;27.00;64.50;;;;;;5117417;28;20081;-70
2021/07/16 09:54:12;;;;;;;6.80;1.23;;;26.90;64.70;;;;;;5117364;28;20031;-70
2021/07/16 09:56:38;;;;;;;7.25;1.23;;;26.50;62.00;;;;;;5113751;28;20031;-70
2021/07/16 09:59:08;;;;;;;2.47;0.90;;;26.30;67.70;;;;;;5117301;28;20053;-70
2021/07/16 10:01:36;;;;;;;1.67;0.80;;;26.30;66.40;;;;;;5117333;28;20085;-70
2021/07/16 10:04:03;;;;;;;4.85;1.00;;;26.30;68.10;;;;;;5117256;28;20019;-70
2021/07/16 10:06:30;;;;;;;4.22;1.00;;;26.40;66.00;;;;;;5116904;28;20030;-70
2021/07/16 10:08:56;;;;;;;4.55;1.23;;;26.50;66.20;;;;;;5116952;28;20038;-70
2021/07/16 10:11:24;;;;;;;2.83;0.95;;;26.50;64.00;;;;;;5117264;28;20367;-70
2021/07/16 10:13:50;;;;;;;1.75;0.90;;;26.70;63.50;;;;;;5117131;28;20077;-70
2021/07/16 10:16:16;;;;;;;3.33;1.05;;;26.90;64.20;;;;;;5116809;28;20032;-70
2021/07/16 10:18:42;;;;;;;5.60;1.05;;;26.90;64.80;;;;;;5111925;28;20035;-70
2021/07/16 10:21:08;;;;;;;3.40;1.25;;;27.40;65.80;;;;;;5106920;28;20020;-70
2021/07/16 10:23:35;;;;;;;3.97;1.45;;;27.50;63.70;;;;;;5096706;28;20082;-71
2021/07/16 10:26:02;;;;;;;3.20;1.10;;;27.70;60.60;;;;;;5096348;28;20035;-71
2021/07/16 10:28:40;;;;;;;3.35;1.52;;;28.00;66.00;;;;;;5096648;28;20028;-70
2021/07/16 10:31:35;;;;;;;2.78;1.40;;;28.00;62.00;;;;;;5096704;28;20316;-70
2021/07/16 10:34:02;;;;;;;6.38;2.58;;;28.10;65.60;;;;;;5096548;28;20055;-70
2021/07/16 10:36:37;;;;;;;2.95;1.25;;;27.80;62.90;;;;;;5096275;28;20024;-70
2021/07/16 10:39:18;;;;;;;3.33;1.60;;;28.00;66.80;;;;;;5096244;28;20075;-70
2021/07/16 10:41:44;;;;;;;6.50;1.70;;;28.10;61.80;;;;;;5096258;28;20047;-70
2021/07/16 10:44:12;;;;;;;5.72;1.67;;;28.00;64.80;;;;;;5096563;28;20063;-70
2021/07/16 10:46:44;;;;;;;3.22;1.23;;;27.60;64.50;;;;;;5096491;28;20020;-70
2021/07/16 10:49:12;;;;;;;3.35;1.45;;;27.10;62.80;;;;;;5096555;28;20032;-70
2021/07/16 10:51:40;;;;;;;5.35;1.70;;;26.70;64.80;;;;;;5099467;28;20024;-70
2021/07/16 10:54:10;;;;;;;6.45;1.80;;;26.50;68.10;;;;;;5100050;28;20024;-70
2021/07/16 10:56:37;;;;;;;3.10;1.67;;;26.30;66.00;;;;;;5099849;28;20442;-70
2021/07/16 10:59:03;;;;;;;5.53;1.70;;;26.20;64.70;;;;;;5100084;28;20031;-70
2021/07/16 11:01:32;;;;;;;3.60;1.58;;;26.00;69.70;;;;;;5100083;28;20020;-70
2021/07/16 11:03:58;;;;;;;4.13;1.48;;;25.90;67.10;;;;;;5099978;28;20024;-70
2021/07/16 11:06:51;;;;;;;5.03;1.80;;;25.90;72.40;;;;;;5099951;28;20028;-70
2021/07/16 11:09:46;;;;;;;4.90;1.48;;;25.70;68.50;;;;;;5099604;28;20055;-70
2021/07/16 11:12:21;;;;;;;4.05;1.70;;;25.60;69.90;;;;;;5086608;28;20036;-70
2021/07/16 11:14:46;;;;;;;3.23;1.60;;;25.40;71.50;;;;;;5099928;28;20434;-70
2021/07/16 11:17:28;;;;;;;2.90;1.42;;;25.20;70.20;;;;;;5099719;28;20028;-70
2021/07/16 11:20:30;;;;;;;6.43;1.52;;;24.90;68.50;;;;;;5099441;28;20028;-70
2021/07/16 11:23:01;;;;;;;4.45;1.40;;;24.70;72.30;;;;;;5067012;28;20324;-70
2021/07/16 11:25:28;;;;;;;4.13;1.15;;;24.40;70.20;;;;;;5099557;28;20035;-70
2021/07/16 11:27:54;;;;;;;4.03;1.00;;;24.30;73.10;;;;;;5099243;28;20036;-70
2021/07/16 11:30:20;;;;;;;2.65;1.17;;;24.10;70.40;;;;;;5099545;28;20028;-70
2021/07/16 11:32:46;;;;;;;3.83;1.00;;;24.00;69.70;;;;;;5099194;28;20035;-70
2021/07/16 11:35:13;;;;;;;1.65;0.90;;;23.80;69.70;;;;;;5099324;28;20320;-70
2021/07/16 11:37:40;;;;;;;3.38;1.00;;;23.70;68.00;;;;;;5099175;28;20320;-70
2021/07/16 11:40:11;;;;;;;1.92;1.10;;;23.70;68.40;;;;;;5099081;28;20074;-70
2021/07/16 11:42:43;;;;;;;3.55;1.10;;;23.60;70.00;;;;;;5098879;28;20416;-70
2021/07/16 11:45:13;;;;;;;1.27;0.80;;;23.60;70.90;;;;;;5098927;28;20032;-70
2021/07/16 11:47:39;;;;;;;1.60;1.05;;;23.60;72.30;;;;;;5098920;28;20428;-70
2021/07/16 11:50:10;;;;;;;2.40;0.85;;;23.60;66.40;;;;;;5099151;28;20050;-70
2021/07/16 11:52:37;;;;;;;2.15;0.90;;;23.40;70.30;;;;;;5099116;28;20028;-70
2021/07/16 11:55:08;;;;;;;2.67;0.90;;;23.40;69.30;;;;;;5098703;28;20024;-70
2021/07/16 11:57:36;;;;;;;3.20;0.88;;;23.20;69.20;;;;;;5098932;28;20312;-70
2021/07/16 12:00:09;;;;;;;2.00;1.00;;;23.10;67.60;;;;;;5098926;28;20134;-70
2021/07/16 12:02:35;;;;;;;3.83;0.90;;;23.00;69.70;;;;;;5098415;28;20028;-70
2021/07/16 12:05:00;;;;;;;3.17;1.00;;;23.00;67.80;;;;;;5098573;28;20034;-70
2021/07/16 12:07:36;;;;;;;2.05;1.00;;;22.90;69.60;;;;;;5098776;28;20039;-70
2021/07/16 12:10:12;;;;;;;1.73;0.90;;;23.00;68.70;;;;;;5098796;28;20024;-70
2021/07/16 12:12:38;;;;;;;2.10;1.10;;;22.90;71.40;;;;;;5098666;28;20359;-70
2021/07/16 12:15:06;;;;;;;2.40;1.15;;;22.70;68.30;;;;;;5098293;28;20081;-70
2021/07/16 12:17:40;;;;;;;2.78;1.00;;;22.60;72.50;;;;;;5098568;28;20121;-70
2021/07/16 12:20:11;;;;;;;1.40;0.88;;;22.50;74.80;;;;;;5098584;28;20103;-70
2021/07/16 12:22:42;;;;;;;3.80;2.05;;;22.40;71.10;;;;;;5098521;28;20032;-70
2021/07/16 12:25:09;;;;;;;1.50;0.95;;;22.30;71.20;;;;;;5098176;28;20078;-70
2021/07/16 12:27:35;;;;;;;2.03;1.00;;;22.20;71.80;;;;;;5098426;28;20024;-70
2021/07/16 12:30:06;;;;;;;2.72;1.00;;;22.20;75.30;;;;;;5098032;28;20435;-70
2021/07/16 12:32:41;;;;;;;2.38;1.17;;;22.20;76.10;;;;;;5098012;28;20035;-70
2021/07/16 12:35:27;;;;;;;2.67;1.33;;;22.20;75.10;;;;;;5098188;28;20087;-70
2021/07/16 12:38:03;;;;;;;4.50;1.00;;;22.00;74.60;;;;;;5098036;28;20066;-70
2021/07/16 12:40:29;;;;;;;2.72;1.40;;;21.90;74.40;;;;;;5097862;28;20024;-70
2021/07/16 12:43:06;;;;;;;2.22;1.13;;;21.80;76.00;;;;;;5098063;28;20024;-70
2021/07/16 12:45:38;;;;;;;2.58;0.90;;;21.70;76.30;;;;;;5098048;28;20043;-70
2021/07/16 12:48:15;;;;;;;2.60;1.10;;;21.70;79.10;;;;;;5097703;28;20412;-70
2021/07/16 12:50:41;;;;;;;2.70;1.05;;;21.70;79.40;;;;;;5097697;28;20447;-70
2021/07/16 12:53:09;;;;;;;3.20;1.10;;;21.50;80.60;;;;;;5097895;28;20043;-70